Time;durP1;ratioP1;P1;durP2;ratioP2;P2;SDS_P1;SDS_P2;PMS_P1;PMS_P2;Temp;Humidity;BMP_temperature;BMP_pressure;BME280_temperature;BME280_humidity;BME280_pressure;Samples;Min_cycle;Max_cycle;Signal;HPM_P1;HPM_P2
2023/06/08 00:02:19;;;;;;;11.63;5.30;;;;;;;23.52;46.70;101458.72;5015827;28;20056;-59
2023/06/08 00:04:45;;;;;;;7.28;3.75;;;;;;;23.64;47.02;101479.88;5015712;28;20034;-58
2023/06/08 00:07:14;;;;;;;12.80;5.22;;;;;;;23.64;46.99;101474.41;5015540;28;20034;-59
2023/06/08 00:09:59;;;;;;;10.70;4.05;;;;;;;23.64;46.96;101474.41;5017152;28;20021;-59
2023/06/08 00:12:25;;;;;;;9.80;3.95;;;;;;;23.65;46.90;101470.63;5025575;28;20481;-58
2023/06/08 00:14:50;;;;;;;7.32;3.75;;;;;;;23.67;47.92;101471.25;5023539;28;20072;-59
2023/06/08 00:17:16;;;;;;;8.00;4.00;;;;;;;23.68;47.57;101475.69;5025679;28;20380;-59
2023/06/08 00:19:45;;;;;;;8.93;3.70;;;;;;;23.69;47.77;101469.19;5026560;28;20459;-59
2023/06/08 00:22:12;;;;;;;8.02;4.28;;;;;;;23.69;47.11;101466.44;5035116;28;20101;-59
2023/06/08 00:24:38;;;;;;;11.35;4.10;;;;;;;23.69;47.80;101466.44;5035535;28;20047;-59
2023/06/08 00:27:05;;;;;;;7.45;3.50;;;;;;;23.71;47.59;101463.50;5033545;28;20485;-59
2023/06/08 00:29:31;;;;;;;11.65;4.20;;;;;;;23.69;47.32;101454.66;5034587;28;20060;-59
2023/06/08 00:31:58;;;;;;;10.68;3.60;;;;;;;23.70;47.65;101461.81;5033810;28;20423;-59
2023/06/08 00:34:25;;;;;;;9.30;4.07;;;;;;;23.63;46.81;101450.81;5033458;28;20025;-59
2023/06/08 00:36:51;;;;;;;10.75;3.95;;;;;;;23.72;47.53;101466.06;5034542;28;20072;-59
2023/06/08 00:39:16;;;;;;;8.95;3.45;;;;;;;23.73;47.34;101466.88;5034602;28;20025;-59
2023/06/08 00:41:42;;;;;;;6.38;2.65;;;;;;;23.71;46.61;101464.34;5034295;28;20029;-59
2023/06/08 00:44:08;;;;;;;11.55;3.72;;;;;;;23.60;46.55;101451.22;5033672;28;20029;-59
2023/06/08 00:46:35;;;;;;;8.02;3.58;;;;;;;23.71;46.84;101472.56;5037455;28;20524;-59
2023/06/08 00:49:00;;;;;;;11.13;3.38;;;;;;;23.69;47.43;101466.44;5036208;28;20028;-59
2023/06/08 00:51:32;;;;;;;12.50;3.53;;;;;;;23.69;46.81;101466.44;5034459;28;20396;-58
2023/06/08 00:54:00;;;;;;;14.90;4.05;;;;;;;23.69;47.14;101471.91;5033189;28;20444;-59
2023/06/08 00:56:31;;;;;;;11.48;3.60;;;;;;;23.65;46.35;101465.13;5034047;28;20033;-59
2023/06/08 00:59:00;;;;;;;7.88;3.75;;;;;;;23.60;46.57;101462.16;5034449;28;20021;-59
2023/06/08 01:01:29;;;;;;;8.88;3.60;;;;;;;23.61;46.47;101472.06;5033989;28;20026;-59
2023/06/08 01:03:55;;;;;;;11.25;4.10;;;;;;;23.57;46.81;101457.09;5034587;28;20052;-59
2023/06/08 01:06:21;;;;;;;4.75;3.38;;;;;;;23.45;46.94;101431.31;5016411;28;20440;-59
2023/06/08 01:09:12;;;;;;;7.18;3.42;;;;;;;23.61;47.01;101457.53;5034565;28;20030;-59
2023/06/08 01:11:50;;;;;;;8.57;3.58;;;;;;;23.60;47.16;101461.31;5034533;28;20380;-59
2023/06/08 01:14:29;;;;;;;9.60;3.63;;;;;;;23.60;47.10;101456.69;5034655;28;20047;-59
2023/06/08 01:16:55;;;;;;;8.60;4.40;;;;;;;23.48;46.32;101441.84;5034294;28;20029;-59
2023/06/08 01:19:39;;;;;;;9.63;3.78;;;;;;;23.57;46.97;101450.75;5034327;28;20042;-59
2023/06/08 01:22:41;;;;;;;10.82;3.67;;;;;;;23.52;46.38;101451.38;5032670;28;20559;-58
2023/06/08 01:25:10;;;;;;;9.52;3.72;;;;;;;23.51;46.77;101451.56;5012310;28;20100;-59
2023/06/08 01:27:37;;;;;;;10.82;4.13;;;;;;;23.49;46.27;101451.75;4995874;28;20112;-58
2023/06/08 01:30:06;;;;;;;9.25;4.28;;;;;;;23.48;46.80;101452.78;5011894;28;20033;-58
2023/06/08 01:32:32;;;;;;;8.68;3.70;;;;;;;23.45;45.84;101441.44;5011894;28;20125;-58
2023/06/08 01:34:57;;;;;;;10.95;3.92;;;;;;;23.46;46.06;101443.09;5012045;28;20067;-58
2023/06/08 01:37:29;;;;;;;7.60;3.45;;;;;;;23.44;46.61;101440.56;5011762;28;20038;-62
2023/06/08 01:40:01;;;;;;;11.10;4.53;;;;;;;23.43;46.71;101441.59;5011324;28;20480;-59
2023/06/08 01:42:28;;;;;;;12.10;4.07;;;;;;;23.27;46.06;101417.25;5012419;28;20087;-58
2023/06/08 01:45:00;;;;;;;13.00;5.15;;;;;;;23.37;45.87;101445.09;5012055;28;20036;-59
2023/06/08 01:47:33;;;;;;;12.18;4.72;;;;;;;23.36;46.43;101443.44;5011181;28;20130;-58
2023/06/08 01:49:58;;;;;;;14.60;4.35;;;;;;;23.35;46.69;101436.25;5011622;28;20044;-59
2023/06/08 01:52:24;;;;;;;10.88;3.92;;;;;;;23.35;46.08;101446.34;5011921;28;20034;-59
2023/06/08 01:54:49;;;;;;;10.95;4.20;;;;;;;23.30;45.46;101444.22;4995336;28;20562;-59
2023/06/08 01:57:15;;;;;;;11.07;4.78;;;;;;;23.32;46.36;101436.66;5012449;28;20092;-59
2023/06/08 01:59:40;;;;;;;9.43;4.38;;;;;;;23.31;46.16;101440.41;5017166;28;20056;-58
2023/06/08 02:02:06;;;;;;;8.85;3.95;;;;;;;23.30;46.12;101438.75;5017977;28;20041;-58
2023/06/08 02:04:31;;;;;;;9.32;4.05;;;;;;;23.29;46.46;101437.03;5033178;28;20037;-59
2023/06/08 02:06:56;;;;;;;11.90;4.38;;;;;;;23.27;46.37;101433.66;5018015;28;20109;-59
2023/06/08 02:09:22;;;;;;;8.10;3.63;;;;;;;23.27;45.83;101441.88;5018112;28;20444;-59
2023/06/08 02:11:47;;;;;;;12.77;4.40;;;;;;;23.26;45.97;101437.44;5017767;28;20274;-58
2023/06/08 02:14:12;;;;;;;15.48;4.03;;;;;;;23.24;45.61;101439.53;5017634;28;20033;-63
2023/06/08 02:16:38;;;;;;;12.07;3.83;;;;;;;23.24;45.93;101439.53;5025087;28;20088;-58
2023/06/08 02:19:03;;;;;;;12.70;4.00;;;;;;;23.23;45.66;101439.75;5035338;28;20037;-59
2023/06/08 02:21:29;;;;;;;6.88;3.50;;;;;;;23.17;45.64;101430.44;5035877;28;20025;-59
2023/06/08 02:23:55;;;;;;;13.70;4.10;;;;;;;23.15;46.24;101430.63;5037410;28;20028;-58
2023/06/08 02:26:22;;;;;;;15.68;5.32;;;;;;;23.12;46.23;101430.16;5037330;28;20477;-58
2023/06/08 02:28:47;;;;;;;6.97;3.83;;;;;;;23.08;45.80;101429.72;5036848;28;20488;-59
2023/06/08 02:31:13;;;;;;;10.07;3.78;;;;;;;22.90;46.25;101399.25;5030681;28;20033;-59
2023/06/08 02:33:38;;;;;;;13.15;3.83;;;;;;;23.05;45.50;101434.72;5024629;28;20065;-59
2023/06/08 02:36:06;;;;;;;11.80;4.47;;;;;;;23.03;46.35;101431.34;5017555;28;20076;-59
2023/06/08 02:38:31;;;;;;;9.70;4.32;;;;;;;23.02;46.52;101432.38;5017374;28;20022;-59
2023/06/08 02:40:57;;;;;;;12.00;4.18;;;;;;;23.00;45.76;101427.09;5016703;28;20052;-58
2023/06/08 02:43:23;;;;;;;12.95;5.13;;;;;;;22.97;46.61;101429.41;5016182;28;20034;-59
2023/06/08 02:45:48;;;;;;;8.00;4.32;;;;;;;22.96;46.14;101430.41;5017295;28;20096;-59
2023/06/08 02:48:14;;;;;;;11.57;4.43;;;;;;;22.93;46.15;101439.84;5016600;28;20385;-59
2023/06/08 02:50:39;;;;;;;13.75;4.68;;;;;;;22.92;45.62;101429.13;5016831;28;20022;-59
2023/06/08 02:53:04;;;;;;;8.25;4.43;;;;;;;22.92;45.71;101434.59;5016789;28;20103;-58
2023/06/08 02:55:34;;;;;;;12.57;4.47;;;;;;;22.90;45.74;101431.19;5015440;28;20029;-59
2023/06/08 02:58:02;;;;;;;11.45;4.82;;;;;;;22.89;46.14;101440.47;5015669;28;20033;-59
2023/06/08 03:00:27;;;;;;;15.45;4.15;;;;;;;22.87;46.74;101445.25;5017148;28;20486;-59
2023/06/08 03:02:53;;;;;;;13.23;4.57;;;;;;;22.83;46.52;101442.09;5017095;28;20080;-58
2023/06/08 03:05:20;;;;;;;7.70;4.28;;;;;;;22.83;46.85;101427.56;5015338;28;20121;-58
2023/06/08 03:07:47;;;;;;;11.98;4.20;;;;;;;22.80;46.02;101433.41;5016482;28;20089;-59
2023/06/08 03:10:13;;;;;;;11.15;5.10;;;;;;;22.77;46.29;101436.53;5014166;28;20041;-58
2023/06/08 03:12:40;;;;;;;17.77;4.85;;;;;;;22.75;45.93;101434.00;5016283;28;20064;-59
2023/06/08 03:15:07;;;;;;;14.82;4.80;;;;;;;22.71;46.75;101434.56;5016356;28;20117;-58
2023/06/08 03:17:34;;;;;;;9.65;4.43;;;;;;;22.67;46.83;101433.28;5015186;28;20029;-59
2023/06/08 03:19:59;;;;;;;8.15;4.05;;;;;;;22.64;46.78;101428.19;5016760;28;20034;-59
2023/06/08 03:22:25;;;;;;;9.23;4.28;;;;;;;22.58;46.36;101427.06;5016895;28;20030;-59
2023/06/08 03:24:51;;;;;;;12.60;4.50;;;;;;;22.58;46.08;101430.59;4999258;28;20386;-59
2023/06/08 03:27:16;;;;;;;17.23;5.07;;;;;;;22.45;46.42;101405.03;5016456;28;20075;-59
2023/06/08 03:29:42;;;;;;;10.02;4.53;;;;;;;22.54;45.97;101423.84;5015320;28;20055;-59
2023/06/08 03:32:08;;;;;;;8.80;4.65;;;;;;;22.55;46.95;101419.25;5016125;28;20025;-59
2023/06/08 03:34:33;;;;;;;10.88;4.50;;;;;;;22.50;46.60;101432.63;4998823;28;20140;-59
2023/06/08 03:36:59;;;;;;;12.52;4.28;;;;;;;22.49;46.36;101439.97;5016476;28;20079;-59
2023/06/08 03:39:24;;;;;;;10.13;4.38;;;;;;;22.47;46.39;101433.84;5015010;28;20123;-58
2023/06/08 03:41:49;;;;;;;15.30;5.43;;;;;;;22.47;46.81;101433.84;5015889;28;20521;-59
2023/06/08 03:44:15;;;;;;;9.95;4.47;;;;;;;22.47;45.83;101438.47;5018831;28;20478;-58
2023/06/08 03:46:41;;;;;;;13.07;5.30;;;;;;;22.46;45.86;101431.31;5016070;28;20030;-58
2023/06/08 03:49:06;;;;;;;8.73;4.07;;;;;;;22.46;46.39;101429.44;5014645;28;20105;-58
2023/06/08 03:51:32;;;;;;;8.43;4.50;;;;;;;22.47;46.10;101428.38;5015625;28;20042;-61
2023/06/08 03:53:57;;;;;;;17.70;4.78;;;;;;;22.48;46.91;101432.81;5015903;28;20022;-58
2023/06/08 03:56:23;;;;;;;11.13;4.93;;;;;;;22.48;46.21;101443.72;5015795;28;20053;-58
2023/06/08 03:58:51;;;;;;;10.75;4.60;;;;;;;22.49;45.98;101437.25;5014785;28;20042;-58
2023/06/08 04:01:17;;;;;;;10.35;4.22;;;;;;;22.50;45.78;101435.38;5015955;28;20053;-59
2023/06/08 04:03:43;;;;;;;10.25;4.72;;;;;;;22.49;46.91;101433.66;5014117;28;20128;-59
2023/06/08 04:06:09;;;;;;;12.68;5.18;;;;;;;22.50;45.98;101424.44;5015261;28;20065;-58
2023/06/08 04:08:39;;;;;;;11.07;5.68;;;;;;;22.50;46.53;101430.72;5015474;28;20026;-59
2023/06/08 04:11:04;;;;;;;14.75;5.72;;;;;;;22.50;46.42;101419.81;5014507;28;20393;-59
2023/06/08 04:13:30;;;;;;;10.93;4.93;;;;;;;22.48;46.79;101424.63;5015773;28;20022;-59
2023/06/08 04:15:56;;;;;;;9.95;4.78;;;;;;;22.48;46.49;101426.50;5014291;28;20028;-58
2023/06/08 04:18:21;;;;;;;18.70;6.18;;;;;;;22.48;46.83;101431.97;5015385;28;20026;-59
2023/06/08 04:20:48;;;;;;;13.57;5.47;;;;;;;22.48;46.20;101415.56;5014982;28;20063;-58
2023/06/08 04:23:15;;;;;;;14.90;5.22;;;;;;;22.51;45.94;101426.97;5013775;28;20021;-58
2023/06/08 04:25:40;;;;;;;12.68;4.85;;;;;;;22.49;45.78;101418.13;5015279;28;20056;-60
2023/06/08 04:28:06;;;;;;;12.52;5.72;;;;;;;22.53;46.24;101422.16;5014854;28;20061;-58
2023/06/08 04:30:32;;;;;;;8.38;4.95;;;;;;;22.55;46.50;101422.84;5013483;28;20045;-58
2023/06/08 04:32:57;;;;;;;14.52;5.07;;;;;;;22.59;46.57;101424.13;5013899;28;20048;-59
2023/06/08 04:35:22;;;;;;;10.73;4.70;;;;;;;22.60;46.76;101422.25;5014945;28;20056;-59
2023/06/08 04:37:48;;;;;;;9.95;5.05;;;;;;;22.64;45.80;101428.19;5015165;28;20157;-58
2023/06/08 04:40:13;;;;;;;9.25;5.38;;;;;;;22.69;45.62;101428.47;5015085;28;20037;-59
2023/06/08 04:42:40;;;;;;;15.07;5.90;;;;;;;22.72;46.44;101422.63;4997254;28;20058;-59
2023/06/08 04:45:08;;;;;;;11.77;6.10;;;;;;;22.75;45.61;101423.09;5014263;28;20034;-58
2023/06/08 04:47:35;;;;;;;15.13;5.40;;;;;;;22.80;45.49;101426.06;5015060;28;20160;-58
2023/06/08 04:50:02;;;;;;;15.40;5.05;;;;;;;22.84;45.65;101415.56;5013480;28;20018;-59
2023/06/08 04:52:27;;;;;;;14.65;5.40;;;;;;;22.73;46.06;101396.97;5013607;28;20022;-58
2023/06/08 04:54:52;;;;;;;17.80;5.18;;;;;;;22.91;45.29;101427.44;5014828;28;20165;-59
2023/06/08 04:57:22;;;;;;;16.38;6.78;;;;;;;22.96;45.67;101423.06;5014961;28;20041;-59
2023/06/08 04:59:48;;;;;;;14.13;5.55;;;;;;;23.01;46.26;101425.22;5015152;28;20050;-59
2023/06/08 05:02:13;;;;;;;13.35;5.55;;;;;;;23.06;45.37;101420.03;5013882;28;20030;-59
2023/06/08 05:04:39;;;;;;;11.57;5.85;;;;;;;23.12;45.98;101420.06;5014700;28;20524;-59
2023/06/08 05:07:05;;;;;;;10.60;5.05;;;;;;;23.18;45.69;101413.81;5014837;28;20029;-59
2023/06/08 05:09:31;;;;;;;10.18;5.03;;;;;;;23.26;45.61;101423.75;5015117;28;20021;-59
2023/06/08 05:11:56;;;;;;;12.32;5.18;;;;;;;23.31;45.35;101423.19;4997154;28;20061;-59
2023/06/08 05:14:22;;;;;;;16.83;5.47;;;;;;;23.39;45.05;101418.47;5014451;28;20021;-59
2023/06/08 05:16:47;;;;;;;11.80;5.18;;;;;;;23.46;45.62;101416.59;5014763;28;20029;-59
2023/06/08 05:19:13;;;;;;;14.38;6.28;;;;;;;23.52;45.31;101414.97;5014966;28;20041;-59
2023/06/08 05:21:39;;;;;;;14.93;5.00;;;;;;;23.60;45.47;101418.41;5014469;28;20036;-59
2023/06/08 05:24:07;;;;;;;14.40;5.55;;;;;;;23.66;45.09;101411.28;5014867;28;20060;-59
2023/06/08 05:26:33;;;;;;;15.57;5.93;;;;;;;23.72;45.78;101419.53;5012767;28;20080;-59
2023/06/08 05:28:59;;;;;;;15.98;5.00;;;;;;;23.81;45.68;101419.38;5014217;28;20113;-59
2023/06/08 05:31:26;;;;;;;14.65;5.82;;;;;;;23.90;45.28;101431.88;5014315;28;20022;-59
2023/06/08 05:33:51;;;;;;;12.18;5.85;;;;;;;23.97;44.90;101424.53;5014081;28;20025;-59
2023/06/08 05:36:17;;;;;;;18.95;5.38;;;;;;;24.05;45.34;101427.09;5014283;28;20029;-59
2023/06/08 05:38:44;;;;;;;17.20;6.22;;;;;;;24.14;45.00;101423.19;5013293;28;20025;-59
2023/06/08 05:41:12;;;;;;;14.63;5.68;;;;;;;24.25;44.50;101417.97;5013464;28;20089;-58
2023/06/08 05:43:38;;;;;;;12.82;5.97;;;;;;;24.34;44.53;101404.94;5014198;28;20037;-59
2023/06/08 05:46:03;;;;;;;15.90;6.30;;;;;;;24.53;44.29;101415.13;5014085;28;20033;-59
2023/06/08 05:48:29;;;;;;;15.32;5.75;;;;;;;24.64;44.21;101414.53;5014719;28;20033;-59
2023/06/08 05:50:54;;;;;;;10.15;4.90;;;;;;;24.73;44.45;101413.28;5014449;28;20040;-59
2023/06/08 05:53:21;;;;;;;10.00;5.32;;;;;;;24.86;44.11;101410.59;5012739;28;20022;-59
2023/06/08 05:55:46;;;;;;;12.48;6.25;;;;;;;24.98;44.13;101412.72;5014402;28;20029;-59
2023/06/08 05:58:13;;;;;;;8.43;5.13;;;;;;;25.05;44.01;101413.56;5013173;28;20026;-59
2023/06/08 06:00:38;;;;;;;11.80;5.68;;;;;;;25.15;43.70;101416.75;5013579;28;20038;-59
2023/06/08 06:03:04;;;;;;;12.40;5.43;;;;;;;25.25;43.84;101417.16;5014646;28;20056;-59
2023/06/08 06:05:29;;;;;;;8.50;5.22;;;;;;;25.33;43.33;101416.94;5013413;28;20029;-59
2023/06/08 06:07:55;;;;;;;13.25;5.28;;;;;;;25.41;43.31;101414.84;5013554;28;20022;-59
2023/06/08 06:10:20;;;;;;;15.18;5.97;;;;;;;25.42;42.97;101400.06;5014285;28;20385;-59
2023/06/08 06:12:46;;;;;;;12.80;5.03;;;;;;;25.62;43.07;101416.53;5013757;28;20061;-59
2023/06/08 06:15:11;;;;;;;13.30;5.40;;;;;;;25.71;42.95;101409.75;5013710;28;20059;-59
2023/06/08 06:17:36;;;;;;;13.07;5.30;;;;;;;25.81;43.07;101417.56;4996155;28;20083;-59
2023/06/08 06:20:05;;;;;;;12.60;5.28;;;;;;;25.91;43.03;101415.19;5012328;28;20398;-59
2023/06/08 06:22:30;;;;;;;16.85;5.97;;;;;;;26.00;42.50;101412.03;5012432;28;20030;-59
2023/06/08 06:24:56;;;;;;;12.73;6.25;;;;;;;26.12;42.49;101420.44;5014001;28;20417;-59
2023/06/08 06:27:21;;;;;;;12.82;5.35;;;;;;;26.26;42.35;101413.03;4996636;28;20038;-59
2023/06/08 06:29:46;;;;;;;13.35;5.97;;;;;;;26.35;42.23;101406.22;5014602;28;20029;-59
2023/06/08 06:32:12;;;;;;;23.10;6.82;;;;;;;26.46;42.08;101408.28;5013825;28;20075;-59
2023/06/08 06:34:39;;;;;;;9.60;5.72;;;;;;;26.56;42.49;101414.13;5012760;28;20032;-60
2023/06/08 06:37:06;;;;;;;17.13;5.82;;;;;;;26.67;41.79;101405.19;5013882;28;20030;-60
2023/06/08 06:39:31;;;;;;;9.75;5.47;;;;;;;26.78;42.18;101404.53;5012930;28;20115;-59
2023/06/08 06:41:57;;;;;;;13.32;5.68;;;;;;;26.91;41.51;101409.91;5013161;28;20077;-59
2023/06/08 06:44:23;;;;;;;8.98;5.25;;;;;;;27.01;41.63;101410.28;5016290;28;20490;-59
2023/06/08 06:46:48;;;;;;;11.98;5.57;;;;;;;27.14;41.60;101412.94;5015736;28;20030;-60
2023/06/08 06:49:13;;;;;;;11.30;5.63;;;;;;;27.25;41.68;101416.88;5017512;28;20030;-60
2023/06/08 06:51:40;;;;;;;16.27;6.05;;;;;;;27.39;41.02;101412.09;5016815;28;20022;-59
2023/06/08 06:54:07;;;;;;;11.02;5.85;;;;;;;27.51;40.82;101421.34;5016972;28;20426;-57
2023/06/08 06:56:32;;;;;;;13.07;6.72;;;;;;;27.59;41.46;101421.88;5015809;28;20026;-57
2023/06/08 06:59:02;;;;;;;12.65;5.90;;;;;;;27.70;41.04;101412.03;4999260;28;20091;-57
2023/06/08 07:01:28;;;;;;;12.57;4.97;;;;;;;27.69;40.74;101399.34;5016979;28;20118;-57
2023/06/08 07:03:53;;;;;;;15.90;5.22;;;;;;;27.92;41.15;101418.78;5016659;28;20029;-57
2023/06/08 07:06:23;;;;;;;11.15;5.50;;;;;;;28.00;39.98;101421.25;4998914;28;20085;-57
2023/06/08 07:08:48;;;;;;;13.15;6.05;;;;;;;28.12;39.63;101411.19;5015439;28;20098;-57
2023/06/08 07:11:14;;;;;;;13.82;6.43;;;;;;;28.21;40.75;101407.06;5016843;28;20026;-57
2023/06/08 07:13:40;;;;;;;12.88;6.55;;;;;;;28.31;39.86;101403.72;5016493;28;20030;-57
2023/06/08 07:16:06;;;;;;;16.20;5.72;;;;;;;28.42;40.41;101402.13;5016301;28;20421;-57
2023/06/08 07:18:31;;;;;;;14.15;5.90;;;;;;;28.57;40.18;101402.53;5015282;28;20080;-57
2023/06/08 07:20:57;;;;;;;16.13;7.45;;;;;;;28.69;39.81;101400.72;5016733;28;20026;-60
2023/06/08 07:23:22;;;;;;;11.52;6.03;;;;;;;28.81;39.25;101402.41;5016428;28;20037;-58
2023/06/08 07:25:48;;;;;;;10.65;6.03;;;;;;;28.93;38.89;101396.94;5017053;28;20076;-59
2023/06/08 07:28:13;;;;;;;13.02;6.53;;;;;;;29.08;39.17;101391.00;5016675;28;20474;-57
2023/06/08 07:30:39;;;;;;;13.27;6.43;;;;;;;29.21;39.29;101388.84;5015761;28;20363;-56
2023/06/08 07:33:04;;;;;;;13.48;6.40;;;;;;;29.37;39.49;101387.31;5015642;28;20048;-57
2023/06/08 07:35:29;;;;;;;16.08;6.10;;;;;;;29.51;39.02;101388.75;5015955;28;20109;-57
2023/06/08 07:37:55;;;;;;;12.98;7.18;;;;;;;29.66;38.49;101385.53;5016592;28;20028;-57
2023/06/08 07:40:21;;;;;;;14.13;6.63;;;;;;;29.79;38.97;101390.78;5015930;28;20101;-58
2023/06/08 07:42:46;;;;;;;14.30;6.60;;;;;;;29.88;38.74;101389.38;5014621;28;20056;-58
2023/06/08 07:45:14;;;;;;;8.52;6.00;;;;;;;30.05;38.30;101390.31;5016474;28;20109;-58
2023/06/08 07:47:41;;;;;;;11.00;6.32;;;;;;;30.15;38.11;101396.03;5016159;28;20063;-58
2023/06/08 07:50:07;;;;;;;12.20;6.03;;;;;;;30.26;38.10;101392.44;5015293;28;20026;-58
2023/06/08 07:52:33;;;;;;;10.77;6.38;;;;;;;30.27;37.58;101376.66;5015530;28;20075;-57
2023/06/08 07:54:59;;;;;;;9.65;5.57;;;;;;;30.54;37.79;101389.69;5014230;28;20501;-58
2023/06/08 07:57:24;;;;;;;11.98;6.80;;;;;;;30.66;37.55;101402.63;5014546;28;20489;-58
2023/06/08 07:59:50;;;;;;;10.23;5.93;;;;;;;30.82;37.41;101396.31;5016105;28;20116;-58
2023/06/08 08:02:16;;;;;;;14.00;5.68;;;;;;;30.95;37.46;101398.78;5014457;28;20402;-58
2023/06/08 08:04:42;;;;;;;11.75;5.63;;;;;;;31.07;36.97;101388.50;5014572;28;20500;-58
2023/06/08 08:07:08;;;;;;;11.50;5.45;;;;;;;31.08;37.14;101376.31;5014489;28;20034;-58
2023/06/08 08:09:33;;;;;;;9.93;5.80;;;;;;;31.29;36.47;101383.03;5015855;28;20025;-58
2023/06/08 08:11:59;;;;;;;10.35;6.38;;;;;;;31.39;36.32;101384.03;4982044;28;20069;-58
2023/06/08 08:14:25;;;;;;;12.10;7.03;;;;;;;31.47;36.29;101383.63;5016072;28;20157;-58
2023/06/08 08:16:50;;;;;;;10.80;6.13;;;;;;;31.60;36.43;101377.72;5014764;28;20037;-58
2023/06/08 08:19:16;;;;;;;13.43;6.40;;;;;;;31.71;36.30;101384.28;4997867;28;20021;-59
2023/06/08 08:21:42;;;;;;;14.25;6.13;;;;;;;31.62;36.00;101347.00;5015877;28;20052;-58
2023/06/08 08:24:07;;;;;;;9.63;6.45;;;;;;;31.94;35.84;101372.94;5015855;28;20460;-58
2023/06/08 08:26:34;;;;;;;11.77;5.95;;;;;;;32.03;35.43;101374.22;5014417;28;20084;-58
2023/06/08 08:29:00;;;;;;;10.00;6.18;;;;;;;32.16;36.02;101375.78;5014510;28;20030;-58
2023/06/08 08:31:26;;;;;;;12.82;6.28;;;;;;;32.30;35.30;101385.38;4997787;28;20080;-59
2023/06/08 08:33:51;;;;;;;14.50;6.65;;;;;;;32.41;35.28;101372.47;5015534;28;20065;-59
2023/06/08 08:36:17;;;;;;;10.20;6.07;;;;;;;32.53;34.74;101370.34;5014058;28;20113;-58
2023/06/08 08:38:42;;;;;;;18.65;6.00;;;;;;;32.67;34.31;101366.94;5015035;28;20030;-58
2023/06/08 08:41:13;;;;;;;12.38;5.95;;;;;;;32.74;34.92;101369.50;5014947;28;20513;-59
2023/06/08 08:43:54;;;;;;;12.02;5.88;;;;;;;32.83;35.13;101374.31;5014818;28;20057;-58
2023/06/08 08:46:22;;;;;;;15.77;6.00;;;;;;;32.95;35.06;101373.31;5014672;28;20037;-58
2023/06/08 08:48:50;;;;;;;13.05;5.72;;;;;;;33.06;34.86;101375.09;5013551;28;20500;-58
2023/06/08 08:51:19;;;;;;;10.20;5.43;;;;;;;33.15;35.06;101368.81;5014576;28;20056;-62
2023/06/08 08:53:49;;;;;;;9.80;5.82;;;;;;;33.26;34.34;101369.72;4996833;28;20029;-58
2023/06/08 08:56:21;;;;;;;12.60;5.25;;;;;;;33.30;34.61;101360.59;5014734;28;20026;-58
2023/06/08 08:58:50;;;;;;;10.82;5.18;;;;;;;33.41;33.21;101367.06;4997477;28;20026;-58
2023/06/08 09:01:17;;;;;;;8.70;5.43;;;;;;;33.51;33.17;101356.00;4997933;28;20029;-59
2023/06/08 09:03:43;;;;;;;11.65;5.00;;;;;;;33.65;34.14;101357.25;5015204;28;20022;-59
2023/06/08 09:06:08;;;;;;;13.07;5.72;;;;;;;33.80;33.09;101364.84;5013496;28;20508;-58
2023/06/08 09:08:33;;;;;;;14.38;5.53;;;;;;;33.91;34.07;101370.19;5015053;28;20069;-58
2023/06/08 09:11:09;;;;;;;9.75;5.28;;;;;;;34.03;33.22;101358.00;5015109;28;20065;-59
2023/06/08 09:13:35;;;;;;;7.68;5.65;;;;;;;34.10;32.96;101365.00;5013182;28;20049;-59
2023/06/08 09:16:14;;;;;;;13.48;5.53;;;;;;;34.21;33.68;101365.88;4996946;28;20068;-58
2023/06/08 09:18:41;;;;;;;8.73;5.32;;;;;;;34.33;32.55;101361.75;5014603;28;20359;-57
2023/06/08 09:21:24;;;;;;;10.40;5.65;;;;;;;34.24;33.05;101323.59;5014735;28;20025;-59
2023/06/08 09:24:12;;;;;;;8.13;5.28;;;;;;;34.59;33.23;101359.91;5014469;28;20048;-58
2023/06/08 09:26:48;;;;;;;7.47;4.50;;;;;;;34.67;32.20;101351.00;5014359;28;20026;-58
2023/06/08 09:29:32;;;;;;;6.63;4.88;;;;;;;34.73;32.44;101358.22;5014741;28;20025;-58
2023/06/08 09:32:01;;;;;;;11.45;5.35;;;;;;;34.83;32.27;101357.41;4997045;28;20029;-56
2023/06/08 09:34:29;;;;;;;8.38;5.03;;;;;;;34.89;32.38;101357.16;5014234;28;20105;-58
2023/06/08 09:37:15;;;;;;;8.30;5.47;;;;;;;35.04;32.54;101347.94;5014432;28;20026;-56
2023/06/08 09:39:42;;;;;;;8.68;4.72;;;;;;;35.12;31.86;101346.59;5012731;28;20077;-58
2023/06/08 09:42:08;;;;;;;10.93;4.80;;;;;;;35.06;31.47;101318.75;5012502;28;20064;-58
2023/06/08 09:44:35;;;;;;;7.57;4.07;;;;;;;35.34;31.76;101336.00;5012785;28;20114;-56
2023/06/08 09:47:33;;;;;;;11.07;4.93;;;;;;;35.42;31.17;101341.84;5013860;28;20393;-58
2023/06/08 09:49:59;;;;;;;6.95;4.22;;;;;;;35.49;30.98;101338.72;5012473;28;20058;-58
2023/06/08 09:52:24;;;;;;;8.63;5.07;;;;;;;35.36;30.88;101317.88;5012950;28;20072;-57
2023/06/08 09:54:51;;;;;;;11.10;5.07;;;;;;;35.51;31.37;101337.31;5014320;28;20022;-58
2023/06/08 09:57:22;;;;;;;7.80;4.80;;;;;;;35.63;31.00;101339.84;5014206;28;20030;-57
2023/06/08 10:00:09;;;;;;;8.45;5.00;;;;;;;35.78;30.55;101336.19;5013930;28;20025;-59
2023/06/08 10:02:41;;;;;;;8.00;4.65;;;;;;;35.86;30.67;101339.22;5012617;28;20030;-58
2023/06/08 10:05:12;;;;;;;9.60;4.72;;;;;;;35.94;30.68;101329.41;5013972;28;20030;-58
2023/06/08 10:07:40;;;;;;;9.60;5.00;;;;;;;36.05;30.68;101325.50;5012467;28;20026;-58
2023/06/08 10:10:11;;;;;;;10.23;5.40;;;;;;;36.17;30.46;101324.03;5012684;28;20125;-58
2023/06/08 10:12:36;;;;;;;10.95;4.75;;;;;;;36.32;30.48;101325.09;5013194;28;20026;-60
2023/06/08 10:15:02;;;;;;;10.20;4.93;;;;;;;36.39;30.26;101315.25;5014731;28;20532;-60
2023/06/08 10:17:29;;;;;;;8.70;5.35;;;;;;;36.52;29.69;101322.16;4996480;28;20030;-60
2023/06/08 10:19:56;;;;;;;7.28;4.45;;;;;;;36.60;29.95;101310.41;5015908;28;20042;-60
2023/06/08 10:22:22;;;;;;;8.93;4.70;;;;;;;36.72;30.06;101311.69;5017000;28;20413;-60
2023/06/08 10:24:48;;;;;;;13.10;5.38;;;;;;;36.75;30.03;101294.34;5025766;28;20386;-60
2023/06/08 10:27:28;;;;;;;12.85;6.10;;;;;;;36.92;29.63;101298.69;5036941;28;20028;-61
2023/06/08 10:29:59;;;;;;;14.48;4.53;;;;;;;37.04;29.88;101299.16;5037871;28;20029;-58
2023/06/08 10:32:42;;;;;;;9.07;5.63;;;;;;;36.99;29.84;101274.91;5037444;28;20036;-60
2023/06/08 10:35:08;;;;;;;7.47;5.35;;;;;;;37.26;29.59;101296.72;5036736;28;20029;-60
2023/06/08 10:37:36;;;;;;;9.13;4.72;;;;;;;37.32;29.22;101299.16;5020164;28;20026;-61
2023/06/08 10:40:11;;;;;;;11.13;5.53;;;;;;;37.43;29.56;101296.28;5036012;28;20112;-61
2023/06/08 10:42:49;;;;;;;8.27;5.75;;;;;;;37.52;28.76;101295.34;5022940;28;20074;-61
2023/06/08 10:45:15;;;;;;;6.60;4.93;;;;;;;37.62;29.14;101291.56;5017131;28;20053;-61
2023/06/08 10:47:42;;;;;;;8.13;4.60;;;;;;;37.74;29.39;101287.25;5017632;28;20107;-61
2023/06/08 10:50:09;;;;;;;9.55;4.60;;;;;;;37.72;29.11;101266.25;5016921;28;20042;-61
2023/06/08 10:52:45;;;;;;;7.63;3.92;;;;;;;37.98;28.38;101284.44;5016004;28;20105;-61
2023/06/08 10:55:12;;;;;;;9.20;4.97;;;;;;;38.12;28.54;101282.53;5017192;28;20025;-61
2023/06/08 10:57:37;;;;;;;8.60;4.40;;;;;;;38.25;29.06;101278.19;5016803;28;20034;-61
2023/06/08 11:00:28;;;;;;;6.30;5.28;;;;;;;38.39;28.11;101276.28;5033491;28;20087;-61
2023/06/08 11:03:14;;;;;;;8.43;5.00;;;;;;;38.58;28.21;101273.47;5037515;28;20025;-61
2023/06/08 11:05:43;;;;;;;5.10;4.60;;;;;;;38.74;28.21;101263.69;5036584;28;20120;-61
2023/06/08 11:08:09;;;;;;;10.77;4.60;;;;;;;38.87;27.38;101262.91;5036584;28;20026;-61
2023/06/08 11:10:39;;;;;;;7.28;4.38;;;;;;;38.97;27.51;101265.56;5036503;28;20079;-61
2023/06/08 11:13:08;;;;;;;9.15;4.95;;;;;;;39.08;27.39;101261.41;5019088;28;20045;-61
2023/06/08 11:15:46;;;;;;;6.07;4.60;;;;;;;39.22;26.94;101265.09;5036106;28;20096;-61
2023/06/08 11:18:12;;;;;;;7.68;4.65;;;;;;;39.35;27.58;101261.47;5036491;28;20052;-61
2023/06/08 11:20:42;;;;;;;9.52;4.68;;;;;;;39.44;26.53;101261.59;5034971;28;20025;-61
2023/06/08 11:23:14;;;;;;;6.55;4.68;;;;;;;39.53;26.83;101252.09;5034843;28;20478;-61